Toab, United Kingdom

11:12 PM GMT on December 10, 2016 (GMT +0000)
Virkie, Shetland Isles, UK | | Change Station

Elev 90 ft 59.89 °N, 1.29 °W | Updated 27 seconds ago

Rain
Rain
47.5 °F
Feels Like 40 °F
N
22.8
Wind Variable Wind from SW
Gusts 25.1 mph

Today
High -- | Low -- °F
--% Chance of Precip.
Yesterday
High -- | Low -- °F
Precip. -- in
Pressure 29.68 in
Visibility -9999.0 miles
Clouds Mostly Cloudy 1100 ft
Overcast 4200 ft
Windchill 40 °F
Dew Point 43 °F
Humidity 85%
Rainfall 0.14 in
Snow Depth Not available.
8:55 AM 3:00 PM
Waxing Gibbous, 87% visible
METAR EGPB 102250Z AUTO 23017KT 3900 RA BKN011/// OVC042/// 09/07 Q1005
Pressure 29.68 in
Visibility -9999.0 miles
Clouds Mostly Cloudy 1100 ft
Overcast 4200 ft
Windchill 40 °F
Dew Point 43 °F
Humidity 85%
Rainfall 0.14 in
Snow Depth Not available.
8:55 AM 3:00 PM
Waxing Gibbous, 87% visible
METAR EGPB 102250Z AUTO 23017KT 3900 RA BKN011/// OVC042/// 09/07 Q1005

10-Day Weather Forecast

×

Almanac

Astronomy

Dec. 10, 2016 Rise Set
Actual Time
Civil Twilight
Nautical Twilight
Astronomical Twilight
Moon
Length of Visible Light
Length of Day
Tomorrow will be .
, % of the Moon is Illuminated

Today's Extremes

Country Highs Country Lows

Community

WunderPhotos

Upload Photos

1,956,670 photos uploaded!

WunderBlog® & News

Nearby

Air Quality

  Air Quality AQ Index Pollutant
Not available.

Snow Depth

Station Depth Elevation

Earthquake Activity

City Distance Mag. Time & Date
Minimum magnitude displayed is 2.5.

Coastal Water Temperatures

Place Temperature

Stations

Nearby Weather Stations

Station Location Temp. Windchill Dew Point Humidity Wind Precip. Elev Updated Type